Wetterdaten: Sonntag, 21.09.2014
Datum Zeit Temp. A. Feuchte A. Luftdruck Regen Wind Richtung Richtung Sonnenschein ET UV Solar Taupunkt Windchill Windben Empfang
21.09.2014 00:00 15,9 C 89 % 1012,7 hPa 0,0 l/m 0,4 km/h (0 Bft) W-SW 256 0 min 0,000 mm 0,0 UV-I 0 W/m 14,1 C 15,9 C 4,0 km/h (1 Bft) 0,00 %
21.09.2014 00:15 15,9 C 89 % 1012,7 hPa 0,0 l/m 0,0 km/h (0 Bft) W-SW 250 0 min 0,000 mm 0,0 UV-I 0 W/m 14,1 C 15,9 C 0,0 km/h (0 Bft) 0,00 %
21.09.2014 00:30 16,2 C 87 % 1013,0 hPa 0,0 l/m 2,2 km/h (1 Bft) W-SW 251 0 min 0,000 mm 0,0 UV-I 0 W/m 14,0 C 16,2 C 4,0 km/h (1 Bft) 0,00 %
21.09.2014 00:45 16,2 C 87 % 1012,8 hPa 0,0 l/m 0,0 km/h (0 Bft) N 354 0 min 0,000 mm 0,0 UV-I 0 W/m 14,0 C 16,2 C 0,0 km/h (0 Bft) 0,00 %
21.09.2014 01:00 15,7 C 87 % 1013,2 hPa 0,0 l/m 0,0 km/h (0 Bft) SW 228 0 min 0,000 mm 0,0 UV-I 0 W/m 13,5 C 15,7 C 0,0 km/h (0 Bft) 0,00 %
21.09.2014 01:15 15,8 C 87 % 1013,0 hPa 0,0 l/m 0,0 km/h (0 Bft) W-SW 240 0 min 0,000 mm 0,0 UV-I 0 W/m 13,6 C 15,8 C 0,0 km/h (0 Bft) 0,00 %
21.09.2014 01:30 15,8 C 86 % 1013,1 hPa 0,0 l/m 0,0 km/h (0 Bft) O-SO 122 0 min 0,000 mm 0,0 UV-I 0 W/m 13,5 C 15,8 C 0,0 km/h (0 Bft) 0,00 %
21.09.2014 01:45 15,8 C 85 % 1013,0 hPa 0,0 l/m 0,0 km/h (0 Bft) W-SW 239 0 min 0,000 mm 0,0 UV-I 0 W/m 13,3 C 15,8 C 0,0 km/h (0 Bft) 0,00 %
21.09.2014 02:00 16,0 C 83 % 1013,1 hPa 0,0 l/m 1,8 km/h (1 Bft) SW 236 0 min 0,000 mm 0,0 UV-I 0 W/m 13,1 C 16,0 C 4,0 km/h (1 Bft) 0,00 %
21.09.2014 02:15 16,1 C 82 % 1013,0 hPa 0,0 l/m 0,0 km/h (0 Bft) O-NO 67 0 min 0,000 mm 0,0 UV-I 0 W/m 13,0 C 16,1 C 0,0 km/h (0 Bft) 0,00 %
21.09.2014 02:30 15,9 C 82 % 1013,0 hPa 0,0 l/m 0,7 km/h (0 Bft) SW 221 0 min 0,000 mm 0,0 UV-I 0 W/m 12,8 C 15,9 C 4,0 km/h (1 Bft) 0,00 %
21.09.2014 02:45 15,8 C 82 % 1013,2 hPa 0,0 l/m 1,4 km/h (1 Bft) SW 223 0 min 0,000 mm 0,0 UV-I 0 W/m 12,7 C 15,8 C 4,0 km/h (1 Bft) 0,00 %
21.09.2014 03:00 15,8 C 82 % 1013,1 hPa 0,0 l/m 0,0 km/h (0 Bft) S 188 0 min 0,000 mm 0,0 UV-I 0 W/m 12,7 C 15,8 C 0,0 km/h (0 Bft) 0,00 %
21.09.2014 03:15 15,5 C 84 % 1013,3 hPa 0,0 l/m 0,0 km/h (0 Bft) SW 219 0 min 0,000 mm 0,0 UV-I 0 W/m 12,8 C 15,5 C 0,0 km/h (0 Bft) 0,00 %
21.09.2014 03:30 15,3 C 85 % 1013,4 hPa 0,0 l/m 0,4 km/h (0 Bft) SO 129 0 min 0,000 mm 0,0 UV-I 0 W/m 12,8 C 15,3 C 4,0 km/h (1 Bft) 0,00 %
21.09.2014 03:45 15,0 C 86 % 1013,5 hPa 0,0 l/m 0,0 km/h (0 Bft) S 175 0 min 0,000 mm 0,0 UV-I 0 W/m 12,7 C 15,0 C 0,0 km/h (0 Bft) 0,00 %
21.09.2014 04:00 15,0 C 86 % 1013,4 hPa 0,0 l/m 0,0 km/h (0 Bft) O-SO 123 0 min 0,000 mm 0,0 UV-I 0 W/m 12,7 C 15,0 C 0,0 km/h (0 Bft) 0,00 %
21.09.2014 04:15 14,7 C 86 % 1013,4 hPa 0,0 l/m 0,0 km/h (0 Bft) S-SW 209 0 min 0,000 mm 0,0 UV-I 0 W/m 12,4 C 14,7 C 0,0 km/h (0 Bft) 0,00 %
21.09.2014 04:30 14,4 C 88 % 1013,4 hPa 0,0 l/m 0,0 km/h (0 Bft) SW 216 0 min 0,000 mm 0,0 UV-I 0 W/m 12,4 C 14,4 C 0,0 km/h (0 Bft) 0,00 %
21.09.2014 04:45 14,4 C 88 % 1013,1 hPa 0,0 l/m 0,0 km/h (0 Bft) S 191 0 min 0,000 mm 0,0 UV-I 0 W/m 12,4 C 14,4 C 0,0 km/h (0 Bft) 0,00 %
21.09.2014 05:00 14,7 C 87 % 1013,1 hPa 0,0 l/m 0,0 km/h (0 Bft) W-NW 285 0 min 0,000 mm 0,0 UV-I 0 W/m 12,6 C 14,7 C 0,0 km/h (0 Bft) 0,00 %
21.09.2014 05:15 14,8 C 85 % 1012,8 hPa 0,0 l/m 0,0 km/h (0 Bft) SW 216 0 min 0,000 mm 0,0 UV-I 0 W/m 12,3 C 14,8 C 0,0 km/h (0 Bft) 0,00 %
21.09.2014 05:30 14,5 C 86 % 1012,8 hPa 0,0 l/m 0,0 km/h (0 Bft) W-SW 251 0 min 0,000 mm 0,0 UV-I 0 W/m 12,2 C 14,5 C 0,0 km/h (0 Bft) 0,00 %
21.09.2014 05:45 14,2 C 87 % 1013,0 hPa 0,0 l/m 0,0 km/h (0 Bft) SO 141 0 min 0,000 mm 0,0 UV-I 0 W/m 12,1 C 14,2 C 0,0 km/h (0 Bft) 0,00 %
21.09.2014 06:00 13,8 C 88 % 1012,9 hPa 0,0 l/m 0,0 km/h (0 Bft) O-SO 114 0 min 0,000 mm 0,0 UV-I 0 W/m 11,8 C 13,8 C 0,0 km/h (0 Bft) 0,00 %
21.09.2014 06:15 13,8 C 88 % 1013,3 hPa 0,0 l/m 0,0 km/h (0 Bft) S 185 0 min 0,000 mm 0,0 UV-I 0 W/m 11,8 C 13,8 C 0,0 km/h (0 Bft) 0,00 %
21.09.2014 06:30 13,5 C 89 % 1013,1 hPa 0,0 l/m 0,0 km/h (0 Bft) S 180 0 min 0,000 mm 0,0 UV-I 0 W/m 11,7 C 13,5 C 0,0 km/h (0 Bft) 0,00 %
21.09.2014 06:45 13,4 C 91 % 1013,2 hPa 0,0 l/m 0,0 km/h (0 Bft) SW 228 0 min 0,000 mm 1,0 UV-I 0 W/m 12,0 C 13,4 C 0,0 km/h (0 Bft) 0,00 %
21.09.2014 07:00 13,2 C 91 % 1013,3 hPa 0,0 l/m 0,0 km/h (0 Bft) W-SW 247 0 min 0,000 mm 1,0 UV-I 9 W/m 11,8 C 13,2 C 0,0 km/h (0 Bft) 0,00 %
21.09.2014 07:15 13,4 C 90 % 1013,1 hPa 0,0 l/m 0,4 km/h (0 Bft) W-SW 255 0 min 0,000 mm 1,0 UV-I 24 W/m 11,8 C 13,4 C 4,0 km/h (1 Bft) 0,00 %
21.09.2014 07:30 13,7 C 91 % 1013,0 hPa 0,0 l/m 0,0 km/h (0 Bft) S 187 0 min 0,000 mm 1,0 UV-I 52 W/m 12,3 C 13,7 C 0,0 km/h (0 Bft) 0,00 %
21.09.2014 07:45 14,2 C 90 % 1012,8 hPa 0,0 l/m 0,0 km/h (0 Bft) SW 216 0 min 0,000 mm 2,0 UV-I 44 W/m 12,6 C 14,2 C 0,0 km/h (0 Bft) 0,00 %
21.09.2014 08:00 15,7 C 83 % 1012,6 hPa 0,0 l/m 0,0 km/h (0 Bft) O-SO 107 0 min 0,000 mm 2,0 UV-I 96 W/m 12,8 C 15,7 C 0,0 km/h (0 Bft) 0,00 %
21.09.2014 08:15 16,7 C 78 % 1012,1 hPa 0,0 l/m 0,0 km/h (0 Bft) SW 218 0 min 0,000 mm 2,0 UV-I 105 W/m 12,8 C 16,7 C 0,0 km/h (0 Bft) 0,00 %
21.09.2014 08:30 19,1 C 70 % 1011,4 hPa 0,0 l/m 0,7 km/h (0 Bft) W-SW 241 0 min 0,000 mm 2,0 UV-I 128 W/m 13,5 C 19,1 C 4,0 km/h (1 Bft) 0,00 %
21.09.2014 08:45 20,3 C 64 % 1011,0 hPa 0,0 l/m 0,4 km/h (0 Bft) NO 54 0 min 0,000 mm 2,0 UV-I 126 W/m 13,3 C 20,3 C 4,0 km/h (1 Bft) 0,00 %
21.09.2014 09:00 20,3 C 64 % 1011,4 hPa 0,0 l/m 0,0 km/h (0 Bft) W-SW 256 0 min 0,000 mm 2,0 UV-I 129 W/m 13,3 C 20,3 C 0,0 km/h (0 Bft) 0,00 %
21.09.2014 09:15 19,9 C 66 % 1011,2 hPa 0,0 l/m 0,7 km/h (0 Bft) SW 230 0 min 0,000 mm 3,0 UV-I 198 W/m 13,4 C 19,9 C 4,0 km/h (1 Bft) 0,00 %
21.09.2014 09:30 20,8 C 64 % 1011,0 hPa 0,0 l/m 0,7 km/h (0 Bft) W-SW 255 0 min 0,000 mm 2,0 UV-I 209 W/m 13,7 C 20,8 C 4,0 km/h (1 Bft) 0,00 %
21.09.2014 09:45 19,8 C 68 % 1011,6 hPa 0,0 l/m 0,0 km/h (0 Bft) W-SW 252 0 min 0,000 mm 2,0 UV-I 176 W/m 13,7 C 19,8 C 0,0 km/h (0 Bft) 0,00 %
21.09.2014 10:00 19,9 C 69 % 1011,4 hPa 0,0 l/m 0,0 km/h (0 Bft) S 183 0 min 0,000 mm 0,0 UV-I 223 W/m 14,0 C 19,9 C 0,0 km/h (0 Bft) 0,00 %
21.09.2014 10:15 20,2 C 68 % 1011,3 hPa 0,0 l/m 0,7 km/h (0 Bft) O-SO 105 0 min 0,000 mm 2,0 UV-I 200 W/m 14,1 C 20,2 C 4,0 km/h (1 Bft) 0,00 %
21.09.2014 10:30 20,1 C 67 % 1011,3 hPa 0,0 l/m 0,7 km/h (0 Bft) S-SW 212 15 min 0,000 mm 2,0 UV-I 457 W/m 13,8 C 20,1 C 4,0 km/h (1 Bft) 0,00 %
21.09.2014 10:45 18,6 C 79 % 1012,1 hPa 0,9 l/m 1,8 km/h (1 Bft) W-SW 246 0 min 0,000 mm 2,0 UV-I 77 W/m 14,9 C 18,6 C 4,0 km/h (1 Bft) 0,00 %
21.09.2014 11:00 16,7 C 81 % 1012,0 hPa 0,9 l/m 0,0 km/h (0 Bft) O-SO 104 0 min 0,000 mm 2,0 UV-I 107 W/m 13,4 C 16,7 C 0,0 km/h (0 Bft) 0,00 %
21.09.2014 11:15 17,2 C 81 % 1011,7 hPa 0,0 l/m 0,0 km/h (0 Bft) W-SW 254 0 min 0,000 mm 3,0 UV-I 180 W/m 13,9 C 17,2 C 0,0 km/h (0 Bft) 0,00 %
21.09.2014 11:30 17,9 C 83 % 1011,6 hPa 0,0 l/m 0,0 km/h (0 Bft) W 267 0 min 0,000 mm 4,0 UV-I 214 W/m 15,0 C 17,9 C 0,0 km/h (0 Bft) 0,00 %
21.09.2014 11:45 18,4 C 81 % 1011,6 hPa 0,0 l/m 0,0 km/h (0 Bft) SW 227 0 min 0,000 mm 0,0 UV-I 113 W/m 15,1 C 18,4 C 0,0 km/h (0 Bft) 0,00 %
21.09.2014 12:00 18,8 C 79 % 1011,2 hPa 0,0 l/m 0,0 km/h (0 Bft) N-NW 340 0 min 0,000 mm 0,0 UV-I 248 W/m 15,1 C 18,8 C 0,0 km/h (0 Bft) 0,00 %
21.09.2014 12:15 20,3 C 71 % 1010,9 hPa 0,0 l/m 0,0 km/h (0 Bft) W-SW 239 15 min 0,000 mm 1,0 UV-I 750 W/m 14,9 C 20,3 C 0,0 km/h (0 Bft) 0,00 %
21.09.2014 12:30 19,3 C 81 % 1012,0 hPa 1,2 l/m 2,2 km/h (1 Bft) W-NW 293 0 min 0,000 mm 1,0 UV-I 110 W/m 16,0 C 19,3 C 4,0 km/h (1 Bft) 0,00 %
21.09.2014 12:45 17,0 C 84 % 1012,3 hPa 4,5 l/m 0,7 km/h (0 Bft) N-NO 26 0 min 0,000 mm 2,0 UV-I 21 W/m 14,3 C 17,0 C 4,0 km/h (1 Bft) 0,00 %
21.09.2014 13:00 16,1 C 87 % 1012,5 hPa 1,5 l/m 0,0 km/h (0 Bft) SW 221 0 min 0,000 mm 4,0 UV-I 38 W/m 13,9 C 16,1 C 0,0 km/h (0 Bft) 0,00 %
21.09.2014 13:15 16,4 C 87 % 1012,6 hPa 0,6 l/m 0,4 km/h (0 Bft) N-NW 340 0 min 0,000 mm 3,0 UV-I 145 W/m 14,2 C 16,4 C 4,0 km/h (1 Bft) 0,00 %
21.09.2014 13:30 16,4 C 86 % 1012,0 hPa 0,6 l/m 0,0 km/h (0 Bft) W-SW 243 0 min 0,000 mm 3,0 UV-I 137 W/m 14,1 C 16,4 C 0,0 km/h (0 Bft) 0,00 %
21.09.2014 13:45 17,2 C 85 % 1011,3 hPa 0,3 l/m 0,4 km/h (0 Bft) SW 225 15 min 0,000 mm 3,0 UV-I 416 W/m 14,7 C 17,2 C 4,0 km/h (1 Bft) 0,00 %
21.09.2014 14:00 18,5 C 82 % 1011,1 hPa 0,0 l/m 0,4 km/h (0 Bft) N 349 15 min 0,000 mm 3,0 UV-I 422 W/m 15,4 C 18,5 C 4,0 km/h (1 Bft) 0,00 %
21.09.2014 14:15 19,4 C 79 % 1010,9 hPa 0,0 l/m 0,0 km/h (0 Bft) SW 226 15 min 0,000 mm 3,0 UV-I 368 W/m 15,7 C 19,4 C 0,0 km/h (0 Bft) 0,00 %
21.09.2014 14:30 19,3 C 77 % 1010,6 hPa 0,0 l/m 0,4 km/h (0 Bft) S 186 0 min 0,000 mm 3,0 UV-I 288 W/m 15,2 C 19,3 C 4,0 km/h (1 Bft) 0,00 %
21.09.2014 14:45 19,3 C 75 % 1010,3 hPa 0,0 l/m 0,7 km/h (0 Bft) W-SW 241 15 min 0,000 mm 3,0 UV-I 359 W/m 14,8 C 19,3 C 4,0 km/h (1 Bft) 0,00 %
21.09.2014 15:00 19,5 C 76 % 1010,1 hPa 0,0 l/m 0,0 km/h (0 Bft) SW 223 0 min 0,000 mm 2,0 UV-I 229 W/m 15,2 C 19,5 C 0,0 km/h (0 Bft) 0,00 %
21.09.2014 15:15 19,8 C 75 % 1009,6 hPa 0,0 l/m 0,0 km/h (0 Bft) SW 225 0 min 0,000 mm 2,0 UV-I 259 W/m 15,2 C 19,8 C 0,0 km/h (0 Bft) 0,00 %
21.09.2014 15:30 20,5 C 70 % 1009,5 hPa 0,0 l/m 0,7 km/h (0 Bft) S 187 15 min 0,000 mm 2,0 UV-I 374 W/m 14,8 C 20,5 C 4,0 km/h (1 Bft) 0,00 %
21.09.2014 15:45 20,3 C 72 % 1009,3 hPa 0,0 l/m 7,9 km/h (2 Bft) SW 215 0 min 0,000 mm 1,0 UV-I 201 W/m 15,1 C 19,7 C 11,9 km/h (2 Bft) 0,00 %
21.09.2014 16:00 20,6 C 69 % 1009,2 hPa 0,0 l/m 0,7 km/h (0 Bft) W-SW 256 0 min 0,000 mm 2,0 UV-I 188 W/m 14,7 C 20,6 C 4,0 km/h (1 Bft) 0,00 %
21.09.2014 16:15 20,1 C 70 % 1009,0 hPa 0,0 l/m 0,4 km/h (0 Bft) W-SW 256 0 min 0,000 mm 0,0 UV-I 231 W/m 14,5 C 20,1 C 4,0 km/h (1 Bft) 0,00 %
21.09.2014 16:30 19,8 C 75 % 1009,3 hPa 0,0 l/m 0,0 km/h (0 Bft) W-NW 286 0 min 0,000 mm 0,0 UV-I 171 W/m 15,2 C 19,8 C 0,0 km/h (0 Bft) 0,00 %
21.09.2014 16:45 18,1 C 83 % 1009,2 hPa 0,6 l/m 0,4 km/h (0 Bft) SW 226 0 min 0,000 mm 0,0 UV-I 64 W/m 15,2 C 18,1 C 4,0 km/h (1 Bft) 0,00 %
21.09.2014 17:00 17,4 C 82 % 1009,8 hPa 0,0 l/m 0,4 km/h (0 Bft) W-SW 250 0 min 0,000 mm 0,0 UV-I 66 W/m 14,3 C 17,4 C 4,0 km/h (1 Bft) 0,00 %
21.09.2014 17:15 16,1 C 84 % 1010,1 hPa 1,8 l/m 0,4 km/h (0 Bft) W-SW 241 0 min 0,000 mm 1,0 UV-I 8 W/m 13,4 C 16,1 C 4,0 km/h (1 Bft) 0,00 %
21.09.2014 17:30 15,6 C 84 % 1010,3 hPa 0,0 l/m 4,0 km/h (1 Bft) SW 232 0 min 0,000 mm 0,0 UV-I 18 W/m 12,9 C 15,6 C 7,9 km/h (2 Bft) 0,00 %
21.09.2014 17:45 15,1 C 84 % 1010,1 hPa 0,3 l/m 0,0 km/h (0 Bft) O 89 0 min 0,000 mm 0,0 UV-I 79 W/m 12,4 C 15,1 C 0,0 km/h (0 Bft) 0,00 %
21.09.2014 18:00 15,5 C 83 % 1009,5 hPa 0,0 l/m 0,0 km/h (0 Bft) SO 134 0 min 0,000 mm 0,0 UV-I 13 W/m 12,6 C 15,5 C 0,0 km/h (0 Bft) 0,00 %
21.09.2014 18:15 15,7 C 82 % 1009,6 hPa 0,0 l/m 1,4 km/h (1 Bft) NW 314 0 min 0,000 mm 0,0 UV-I 66 W/m 12,6 C 15,7 C 4,0 km/h (1 Bft) 0,00 %
21.09.2014 18:30 14,8 C 84 % 1009,7 hPa 0,0 l/m 0,0 km/h (0 Bft) N-NO 22 0 min 0,000 mm 0,0 UV-I 17 W/m 12,1 C 14,8 C 0,0 km/h (0 Bft) 0,00 %
21.09.2014 18:45 14,5 C 86 % 1010,0 hPa 0,0 l/m 0,0 km/h (0 Bft) W 280 0 min 0,000 mm 0,0 UV-I 4 W/m 12,2 C 14,5 C 0,0 km/h (0 Bft) 0,00 %
21.09.2014 19:00 14,2 C 87 % 1009,7 hPa 0,0 l/m 0,0 km/h (0 Bft) N-NW 342 0 min 0,000 mm 0,0 UV-I 0 W/m 12,1 C 14,2 C 0,0 km/h (0 Bft) 0,00 %
21.09.2014 19:15 14,0 C 87 % 1009,9 hPa 0,0 l/m 0,0 km/h (0 Bft) W-NW 297 0 min 0,000 mm 0,0 UV-I 0 W/m 11,9 C 14,0 C 0,0 km/h (0 Bft) 0,00 %
21.09.2014 19:30 13,9 C 87 % 1010,1 hPa 0,0 l/m 0,0 km/h (0 Bft) W-SW 251 0 min 0,000 mm 0,0 UV-I 0 W/m 11,8 C 13,9 C 0,0 km/h (0 Bft) 0,00 %
21.09.2014 19:45 13,8 C 86 % 1010,3 hPa 0,0 l/m 0,0 km/h (0 Bft) W-SW 256 0 min 0,000 mm 0,0 UV-I 0 W/m 11,5 C 13,8 C 0,0 km/h (0 Bft) 0,00 %
21.09.2014 20:00 13,8 C 86 % 1010,3 hPa 0,0 l/m 0,0 km/h (0 Bft) S 186 0 min 0,000 mm 0,0 UV-I 0 W/m 11,5 C 13,8 C 0,0 km/h (0 Bft) 0,00 %
21.09.2014 20:15 13,8 C 86 % 1010,3 hPa 0,0 l/m 0,7 km/h (0 Bft) W 263 0 min 0,000 mm 0,0 UV-I 0 W/m 11,5 C 13,8 C 4,0 km/h (1 Bft) 0,00 %
21.09.2014 20:30 14,0 C 85 % 1010,5 hPa 0,0 l/m 0,4 km/h (0 Bft) O-NO 77 0 min 0,000 mm 0,0 UV-I 0 W/m 11,5 C 14,0 C 4,0 km/h (1 Bft) 0,00 %
21.09.2014 20:45 14,5 C 83 % 1010,1 hPa 0,0 l/m 0,0 km/h (0 Bft) SO 129 0 min 0,000 mm 0,0 UV-I 0 W/m 11,6 C 14,5 C 0,0 km/h (0 Bft) 0,00 %
21.09.2014 21:00 14,3 C 85 % 1010,0 hPa 0,0 l/m 2,9 km/h (1 Bft) W-SW 246 0 min 0,000 mm 0,0 UV-I 0 W/m 11,8 C 14,3 C 7,9 km/h (2 Bft) 0,00 %
21.09.2014 21:15 14,4 C 84 % 1009,9 hPa 0,0 l/m 0,7 km/h (0 Bft) O 79 0 min 0,000 mm 0,0 UV-I 0 W/m 11,7 C 14,4 C 4,0 km/h (1 Bft) 0,00 %
21.09.2014 21:30 14,5 C 84 % 1009,9 hPa 0,0 l/m 6,8 km/h (2 Bft) W-NW 300 0 min 0,000 mm 0,0 UV-I 0 W/m 11,8 C 14,3 C 11,9 km/h (2 Bft) 0,00 %
21.09.2014 21:45 14,9 C 82 % 1009,7 hPa 0,0 l/m 0,7 km/h (0 Bft) NO 44 0 min 0,000 mm 0,0 UV-I 0 W/m 11,9 C 14,9 C 4,0 km/h (1 Bft) 0,00 %
21.09.2014 22:00 14,9 C 83 % 1009,8 hPa 0,3 l/m 5,8 km/h (2 Bft) NW 325 0 min 0,000 mm 0,0 UV-I 0 W/m 12,0 C 14,9 C 7,9 km/h (2 Bft) 0,00 %
21.09.2014 22:15 14,6 C 83 % 1009,7 hPa 0,0 l/m 5,8 km/h (2 Bft) W-NW 290 0 min 0,000 mm 0,0 UV-I 0 W/m 11,7 C 14,6 C 11,9 km/h (2 Bft) 0,00 %
21.09.2014 22:30 14,5 C 84 % 1010,1 hPa 0,0 l/m 2,2 km/h (1 Bft) N-NO 32 0 min 0,000 mm 0,0 UV-I 0 W/m 11,8 C 14,5 C 4,0 km/h (1 Bft) 0,00 %
21.09.2014 22:45 14,1 C 85 % 1009,9 hPa 0,0 l/m 1,8 km/h (1 Bft) NO 52 0 min 0,000 mm 0,0 UV-I 0 W/m 11,6 C 14,1 C 4,0 km/h (1 Bft) 0,00 %
21.09.2014 23:00 14,3 C 84 % 1009,9 hPa 0,0 l/m 0,7 km/h (0 Bft) O-SO 114 0 min 0,000 mm 0,0 UV-I 0 W/m 11,6 C 14,3 C 4,0 km/h (1 Bft) 0,00 %
21.09.2014 23:15 14,3 C 84 % 1009,7 hPa 0,0 l/m 1,4 km/h (1 Bft) S 186 0 min 0,000 mm 0,0 UV-I 0 W/m 11,6 C 14,3 C 4,0 km/h (1 Bft) 0,00 %
21.09.2014 23:30 14,3 C 84 % 1009,7 hPa 0,0 l/m 0,7 km/h (0 Bft) S 174 0 min 0,000 mm 0,0 UV-I 0 W/m 11,6 C 14,3 C 4,0 km/h (1 Bft) 0,00 %
_ Min-Zeit 07:00 08:45 16:15 - 00:15 - - - - - - 19:45 07:00 00:15 00:00
Minimum _ 13,2 C 64 % 1009,0 hPa - 0,0 km/h (0 Bft) - - - - - - 11,5 C 13,2 C 0,0 km/h (0 Bft) 0,00 %
_ Max-Zeit 09:30 06:45 03:45 12:45 15:45 - - 10:30 00:00 11:30 12:15 12:30 09:30 15:45 00:00
Maximum _ 20,8 C 91 % 1013,5 hPa 4,5 l/m 7,9 km/h
SW (2 Bft)
- - 15 min 0,000 mm 4,0 UV-I 750 W/m 16,0 C 20,8 C 11,9 km/h
SW (2 Bft)
0,00 %
Durchschnitt _ 16,3 C 82 % 1011,4 hPa #13,5 l/m 0,7 km/h (0 Bft) SW - #1:45 h #0,000 mm 2,1 UV-I 170 W/m 13,2 C 16,3 C 2,2 km/h (1 Bft) 0,00 %